Oostwold Airport

EHOW · Groningen, Niederlande

3. Oktober 2022

Uhrzeit Code Wetter Temp. Sichtweite Wolkendecke Wind METAR/SPECI
06:50
V
10 °C 10 km+ - 250° 250° 6 kt METAR EDWE 030450Z AUTO 25006KT 9999 // NCD 10/09 Q1024
06:20
V
10 °C 10 km+ - 260° 260° 6 kt METAR EDWE 030420Z AUTO 26006KT 9999 // FEW024/// 10/09 Q1024
05:50
V
10 °C 10 km+ - 260° 260° 5 kt METAR EDWE 030350Z AUTO 26005KT 9999 // NCD 10/09 Q1024
05:20
V
11 °C 10 km+ - 260° 260° 5 kt METAR EDWE 030320Z AUTO 26005KT 9999 // FEW047/// 11/09 Q1024
04:50
V
11 °C 10 km+ - 260° 260° 6 kt METAR EDWE 030250Z AUTO 26006KT 9999 // FEW029/// SCT050/// 11/10 Q1023
04:20
V
12 °C 10 km+ 4.900 ft 260° 260° 6 kt METAR EDWE 030220Z AUTO 26006KT 9999 // OVC049/// 12/10 Q1023
03:50
V
12 °C 10 km+ 5.000 ft 280° 280° 6 kt METAR EDWE 030150Z AUTO 28006KT 9999 // BKN050/// 12/10 Q1023
03:20
V
12 °C 10 km+ 4.800 ft 280° 280° 6 kt METAR EDWE 030120Z AUTO 28006KT 9999 // OVC048/// 12/10 Q1023
02:50
M
12 °C 10 km+ 2.900 ft 280° 280° 6 kt METAR EDWE 030050Z AUTO 28006KT 9999 // BKN029/// BKN047/// 12/10 Q1023
02:20
V
13 °C 10 km+ 5.000 ft 280° 280° 7 kt METAR EDWE 030020Z AUTO 28007KT 9999 // FEW032/// BKN050/// 13/10 Q1022
01:50
V
11 °C 10 km+ - 250° 250° 6 kt METAR EDWE 022350Z AUTO 25006KT 9999 // FEW037/// SCT049/// 11/10 Q1022
01:20
V
11 °C 10 km+ 4.500 ft 270° 270° 6 kt METAR EDWE 022320Z AUTO 27006KT 230V290 9999 // BKN045/// 11/10 Q1022
00:50
V
11 °C 10 km+ - 280° 280° 7 kt METAR EDWE 022250Z AUTO 28007KT 9999 // NCD 11/09 Q1022
00:20
V
11 °C 10 km+ - 270° 270° 7 kt METAR EDWE 022220Z AUTO 27007KT 9999 // NCD 11/09 Q1022

2. Oktober 2022

Uhrzeit Code Wetter Temp. Sichtweite Wolkendecke Wind METAR/SPECI
23:50
V
12 °C 10 km+ - 270° 270° 7 kt METAR EDWE 022150Z AUTO 27007KT 9999 // FEW027/// 12/10 Q1021
23:20
M
12 °C 10 km+ 2.500 ft 270° 270° 6 kt METAR EDWE 022120Z AUTO 27006KT 9999 // BKN025/// BKN053/// 12/11 Q1021
22:50
V
13 °C 10 km+ 4.000 ft 280° 280° 8 kt METAR EDWE 022050Z AUTO 28008KT 250V310 9999 // BKN040/// 13/10 Q1021
22:20
V
13 °C 10 km+ 4.800 ft 290° 290° 9 kt METAR EDWE 022020Z AUTO 29009KT 9999 // BKN048/// BKN058/// 13/09 Q1021
21:50
V
13 °C 10 km+ 4.200 ft 300° 300° 12 kt METAR EDWE 021950Z AUTO 30012KT 9999 // BKN042/// 13/10 Q1020
21:20
V
12 °C 10 km+ - 280° 280° 7 kt METAR EDWE 021920Z AUTO 28007KT 9999 // FEW027/// 12/10 Q1020
20:50
V
13 °C 10 km+ - 290° 290° 7 kt METAR EDWE 021850Z AUTO 29007KT 9999 // FEW026/// SCT047/// 13/10 Q1020
07:50
V
12 °C 10 km+ - 240° 240° 8 kt METAR EDWE 020550Z AUTO 24008KT 9999 // FEW030/// 12/10 Q1011
07:20
V
12 °C 10 km+ 6.900 ft 230° 230° 10 kt METAR EDWE 020520Z AUTO 23010KT 9999 // FEW029/// BKN069/// 12/11 Q1011
06:50
V
12 °C 10 km+ 5.300 ft 230° 230° 7 kt METAR EDWE 020450Z AUTO 23007KT 9999 // FEW016/// OVC053/// 12/11 Q1011
06:20
V
12 °C 10 km+ 4.800 ft 300° 300° 7 kt METAR EDWE 020420Z AUTO 30007KT 240V340 9999 // SCT017/// OVC048/// 12/11 Q1011
05:50
V
12 °C 10 km+ 6.500 ft 240° 240° 10 kt METAR EDWE 020350Z AUTO 24010KT 9999 // FEW014/// SCT051/// OVC065/// 12/11 Q1011
05:20
V
12 °C 10 km+ 16.000 ft 210° 210° 7 kt METAR EDWE 020320Z AUTO 21007KT 180V240 9999 // FEW032/// SCT076/// BKN160/// 12/11 Q1010
04:50
V
12 °C 10 km+ - 220° 220° 7 kt METAR EDWE 020250Z AUTO 22007KT 190V250 9999 // FEW037/// 12/10 Q1010
04:20
V
12 °C 10 km+ 8.000 ft 230° 230° 8 kt METAR EDWE 020220Z AUTO 23008KT 9999 // BKN080/// 12/10 Q1010
03:50
V
12 °C 10 km+ - 220° 220° 7 kt METAR EDWE 020150Z AUTO 22007KT 9999 // FEW031/// SCT073/// 12/11 Q1010
03:20
V
12 °C 10 km+ 6.900 ft 230° 230° 10 kt METAR EDWE 020120Z AUTO 23010KT 9999 // SCT034/// BKN069/// BKN078/// 12/10 Q1010
02:50
V
12 °C 10 km+ 6.900 ft 230° 230° 8 kt METAR EDWE 020050Z AUTO 23008KT 200V260 9999 // FEW033/// BKN069/// 12/10 Q1010
02:20
V
12 °C 10 km+ - 220° 220° 7 kt METAR EDWE 020020Z AUTO 22007KT 9999 // FEW079/// 12/10 Q1010
01:50
V
12 °C 10 km+ 3.500 ft 230° 230° 7 kt METAR EDWE 012350Z AUTO 23007KT 9999 // FEW020/// SCT026/// BKN035/// 12/09 Q1010
01:20
V
12 °C 10 km+ 8.400 ft 230° 230° 9 kt METAR EDWE 012320Z AUTO 23009KT 9999 // SCT061/// BKN084/// 12/10 Q1009
00:50
V
12 °C 10 km+ 3.500 ft 250° 250° 15 kt METAR EDWE 012250Z AUTO 25015KT 9999 // FEW014/// BKN035/// OVC140/// 12/10 Q1009
00:20
V
12 °C 10 km+ - 220° 220° 7 kt METAR EDWE 012220Z AUTO 22007KT 9999 // FEW074/// SCT170/// 12/10 Q1009

1. Oktober 2022

Uhrzeit Code Wetter Temp. Sichtweite Wolkendecke Wind METAR/SPECI
23:50
V
12 °C 10 km+ 15.000 ft 230° 230° 9 kt METAR EDWE 012150Z AUTO 23009KT 9999 // FEW030/// SCT078/// BKN150/// 12/10 Q1009
23:20
V
12 °C 10 km+ - 210° 210° 5 kt METAR EDWE 012120Z AUTO 21005KT 9999 // FEW083/// 12/10 Q1008
22:50
V
12 °C 10 km+ 6.800 ft 240° 240° 8 kt METAR EDWE 012050Z AUTO 24008KT 9999 // FEW032/// SCT046/// BKN068/// 12/10 Q1008
22:20
V
12 °C 10 km+ 6.900 ft 250° 250° 11 kt METAR EDWE 012020Z AUTO 25011KT 9999 // BKN069/// 12/10 Q1008
21:50
V
12 °C 10 km+ 8.200 ft 240° 240° 8 kt METAR EDWE 011950Z AUTO 24008KT 9999 // FEW028/// SCT040/// BKN082/// 12/10 Q1008
21:20
V
12 °C 10 km+ 7.900 ft 240° 240° 8 kt METAR EDWE 011920Z AUTO 24008KT 9999 // FEW038/// SCT049/// BKN079/// 12/10 Q1007
20:50
V
12 °C 10 km+ 8.600 ft 250° 250° 9 kt METAR EDWE 011850Z AUTO 25009KT 9999 // FEW019/// SCT064/// BKN086/// 12/11 Q1007
Ältere Daten

Wir und Dritte verfolgen dein Internetverhalten auf unserer Website mit Cookies. Wenn du fortfährst, gehen wir davon aus, dass du mit unserer Cookie-Richtlinie einverstanden bist. Mehr erfahren